createdAt,value
2016-10-23T00:00:33.534Z,0
2016-10-23T00:01:33.542Z,0
2016-10-23T00:02:33.593Z,0
2016-10-23T00:03:33.578Z,0
2016-10-23T00:04:33.630Z,0
2016-10-23T00:05:33.611Z,0
2016-10-23T00:06:33.641Z,0
2016-10-23T00:07:33.647Z,0
2016-10-23T00:08:33.985Z,0
2016-10-23T00:09:33.686Z,0
2016-10-23T00:10:33.707Z,0
2016-10-23T00:11:33.721Z,0
2016-10-23T00:12:33.721Z,0
2016-10-23T00:13:33.729Z,0
2016-10-23T00:14:33.759Z,0
2016-10-23T00:15:33.759Z,0
2016-10-23T00:16:33.795Z,0
2016-10-23T00:17:33.786Z,0
2016-10-23T00:18:33.846Z,0
2016-10-23T00:19:33.817Z,0
2016-10-23T00:20:33.837Z,0
2016-10-23T00:21:33.860Z,0
2016-10-23T00:22:33.883Z,0
2016-10-23T00:23:33.894Z,0
2016-10-23T00:24:33.907Z,0
2016-10-23T00:25:33.933Z,0
2016-10-23T00:26:33.957Z,0
2016-10-23T00:27:33.962Z,0
2016-10-23T00:28:33.993Z,0
2016-10-23T00:29:34.003Z,0
2016-10-23T00:30:33.991Z,0
2016-10-23T00:31:34.030Z,0
2016-10-23T00:32:34.033Z,0
2016-10-23T00:33:34.044Z,0
2016-10-23T00:34:34.074Z,0
2016-10-23T00:35:34.075Z,0
2016-10-23T00:36:34.105Z,0
2016-10-23T00:37:34.103Z,0
2016-10-23T00:38:34.142Z,0
2016-10-23T00:39:34.170Z,0
2016-10-23T00:40:34.146Z,0
2016-10-23T00:41:34.189Z,0
2016-10-23T00:42:34.244Z,0
2016-10-23T00:43:34.194Z,0
2016-10-23T00:44:34.219Z,0
2016-10-23T00:45:34.231Z,0
2016-10-23T00:46:34.246Z,0
2016-10-23T00:47:34.256Z,0
2016-10-23T00:48:34.292Z,0
2016-10-23T00:49:34.330Z,0
2016-10-23T00:50:34.326Z,0
2016-10-23T00:51:34.333Z,0
2016-10-23T00:52:34.353Z,0
2016-10-23T00:53:34.363Z,0
2016-10-23T00:54:34.387Z,0
2016-10-23T00:55:34.396Z,0
2016-10-23T00:56:34.397Z,0
2016-10-23T00:57:34.429Z,0
2016-10-23T00:58:34.438Z,0
2016-10-23T00:59:34.429Z,0
2016-10-23T01:00:34.462Z,0
2016-10-23T01:01:34.494Z,0
2016-10-23T01:02:34.514Z,0
2016-10-23T01:03:34.507Z,0
2016-10-23T01:04:34.544Z,0
2016-10-23T01:05:34.534Z,0
2016-10-23T01:06:34.882Z,0
2016-10-23T01:07:34.581Z,0
2016-10-23T01:08:34.590Z,0
2016-10-23T01:09:34.627Z,0
2016-10-23T01:10:34.652Z,0
2016-10-23T01:11:34.638Z,0
2016-10-23T01:12:34.646Z,0
2016-10-23T01:13:34.718Z,0
2016-10-23T01:14:34.693Z,0
2016-10-23T01:15:34.702Z,0
2016-10-23T01:16:34.705Z,0
2016-10-23T01:17:34.739Z,0
2016-10-23T01:18:34.767Z,0
2016-10-23T01:19:34.770Z,0
2016-10-23T01:20:34.794Z,0
2016-10-23T01:21:34.801Z,0
2016-10-23T01:22:34.809Z,0
2016-10-23T01:23:34.816Z,0
2016-10-23T01:24:34.842Z,0
2016-10-23T01:25:34.860Z,0
2016-10-23T01:26:34.880Z,0
2016-10-23T01:27:34.873Z,0
2016-10-23T01:28:34.915Z,0
2016-10-23T01:29:34.926Z,0
2016-10-23T01:30:34.936Z,0
2016-10-23T01:31:34.939Z,0
2016-10-23T01:32:34.967Z,0
2016-10-23T01:33:34.973Z,0
2016-10-23T01:34:34.992Z,0
2016-10-23T01:35:35.002Z,0
2016-10-23T01:36:35.033Z,0
2016-10-23T01:37:35.046Z,0
2016-10-23T01:38:35.391Z,0
2016-10-23T01:39:35.082Z,0
2016-10-23T01:40:35.407Z,0
2016-10-23T01:41:35.103Z,0
2016-10-23T01:42:35.122Z,0
2016-10-23T01:43:35.133Z,0
2016-10-23T01:44:35.147Z,0
2016-10-23T01:45:35.164Z,0
2016-10-23T01:46:35.205Z,0
2016-10-23T01:47:35.192Z,0
2016-10-23T01:48:35.215Z,0
2016-10-23T01:49:35.215Z,0
2016-10-23T01:50:35.232Z,0
2016-10-23T01:51:35.271Z,0
2016-10-23T01:52:35.265Z,0
2016-10-23T01:53:35.282Z,0
2016-10-23T01:54:35.309Z,0
2016-10-23T01:55:35.314Z,0
2016-10-23T01:56:35.330Z,0
2016-10-23T01:57:35.352Z,0
2016-10-23T01:58:35.359Z,0
2016-10-23T01:59:35.367Z,0
2016-10-23T02:00:35.403Z,0
2016-10-23T02:01:35.403Z,0
2016-10-23T02:02:35.426Z,0
2016-10-23T02:03:35.452Z,0
2016-10-23T02:04:35.786Z,0
2016-10-23T02:05:35.462Z,0
2016-10-23T02:06:35.493Z,0
2016-10-23T02:07:35.519Z,0
2016-10-23T02:08:35.504Z,0
2016-10-23T02:09:35.582Z,0
2016-10-23T02:10:35.570Z,0
2016-10-23T02:11:35.560Z,0
2016-10-23T02:12:35.581Z,0
2016-10-23T02:13:35.602Z,0
2016-10-23T02:14:35.609Z,0
2016-10-23T02:15:35.620Z,0
2016-10-23T02:16:35.644Z,0
2016-10-23T02:17:35.663Z,0
2016-10-23T02:18:36.004Z,0
2016-10-23T02:19:35.684Z,0
2016-10-23T02:20:35.714Z,0
2016-10-23T02:21:35.778Z,0
2016-10-23T02:22:35.756Z,0
2016-10-23T02:23:35.741Z,0
2016-10-23T02:24:35.786Z,0
2016-10-23T02:25:35.782Z,0
2016-10-23T02:26:35.804Z,0
2016-10-23T02:27:35.817Z,0
2016-10-23T02:28:35.845Z,0
2016-10-23T02:29:35.846Z,0
2016-10-23T02:30:36.185Z,0
2016-10-23T02:31:35.870Z,0
2016-10-23T02:32:35.901Z,0
2016-10-23T02:33:35.895Z,0
2016-10-23T02:34:35.922Z,0
2016-10-23T02:35:35.944Z,0
2016-10-23T02:36:35.962Z,0
2016-10-23T02:37:35.970Z,0
2016-10-23T02:38:35.996Z,0
2016-10-23T02:39:35.985Z,0
2016-10-23T02:40:36.007Z,0
2016-10-23T02:41:36.029Z,0
2016-10-23T02:42:36.080Z,0
2016-10-23T02:43:36.051Z,0
2016-10-23T02:44:36.063Z,0
2016-10-23T02:45:36.087Z,0
2016-10-23T02:46:36.119Z,0
2016-10-23T02:47:36.122Z,0
2016-10-23T02:48:36.168Z,0
2016-10-23T02:49:36.204Z,0
2016-10-23T02:50:36.164Z,0
2016-10-23T02:51:36.209Z,0
2016-10-23T02:52:36.186Z,0
2016-10-23T02:53:36.218Z,0
2016-10-23T02:54:36.261Z,0
2016-10-23T02:55:36.255Z,0
2016-10-23T02:56:36.281Z,0
2016-10-23T02:57:36.268Z,0
2016-10-23T02:58:36.301Z,0
2016-10-23T02:59:36.322Z,0
2016-10-23T03:00:36.336Z,0
2016-10-23T03:01:36.349Z,0
2016-10-23T03:02:36.362Z,0
2016-10-23T03:03:36.376Z,0
2016-10-23T03:04:36.393Z,0
2016-10-23T03:05:36.387Z,0
2016-10-23T03:06:36.409Z,0
2016-10-23T03:07:36.447Z,0
2016-10-23T03:08:36.452Z,0
2016-10-23T03:09:36.469Z,0
2016-10-23T03:10:36.520Z,0
2016-10-23T03:11:36.477Z,0
2016-10-23T03:12:36.551Z,0
2016-10-23T03:13:36.538Z,0
2016-10-23T03:14:36.553Z,0
2016-10-23T03:15:36.552Z,0
2016-10-23T03:16:36.570Z,0
2016-10-23T03:17:36.577Z,0
2016-10-23T03:18:36.602Z,0
2016-10-23T03:19:36.603Z,0
2016-10-23T03:20:36.673Z,0
2016-10-23T03:21:36.678Z,0
2016-10-23T03:22:36.996Z,0
2016-10-23T03:23:36.663Z,0
2016-10-23T03:24:36.727Z,0
2016-10-23T03:25:36.689Z,0
2016-10-23T03:26:36.734Z,0
2016-10-23T03:27:36.715Z,0
2016-10-23T03:28:36.760Z,0
2016-10-23T03:29:36.762Z,0
2016-10-23T03:30:36.783Z,0
2016-10-23T03:31:36.808Z,0
2016-10-23T03:32:36.804Z,0
2016-10-23T03:33:36.814Z,0
2016-10-23T03:34:36.849Z,0
2016-10-23T03:35:36.887Z,0
2016-10-23T03:36:36.865Z,0
2016-10-23T03:37:36.885Z,0
2016-10-23T03:38:36.934Z,0
2016-10-23T03:39:36.922Z,0
2016-10-23T03:40:36.960Z,0
2016-10-23T03:41:36.945Z,0
2016-10-23T03:42:36.969Z,0
2016-10-23T03:43:36.975Z,0
2016-10-23T03:44:37.032Z,0
2016-10-23T03:45:37.014Z,0
2016-10-23T03:46:37.025Z,0
2016-10-23T03:47:37.023Z,0
2016-10-23T03:48:37.053Z,0
2016-10-23T03:49:37.054Z,0
2016-10-23T03:50:37.071Z,0
2016-10-23T03:51:37.096Z,0
2016-10-23T03:52:37.149Z,0
2016-10-23T03:53:37.107Z,0
2016-10-23T03:54:37.133Z,0
2016-10-23T03:55:37.160Z,0
2016-10-23T03:56:37.178Z,0
2016-10-23T03:57:37.206Z,0
2016-10-23T03:58:37.194Z,0
2016-10-23T03:59:37.216Z,0
2016-10-23T04:01:37.438Z,0
2016-10-23T04:02:37.248Z,0
2016-10-23T04:03:37.258Z,0
2016-10-23T04:04:37.275Z,0
2016-10-23T04:05:37.294Z,0
2016-10-23T04:06:37.290Z,0
2016-10-23T04:07:37.318Z,0
2016-10-23T04:08:37.328Z,0
2016-10-23T04:09:37.334Z,0
2016-10-23T04:10:37.367Z,0
2016-10-23T04:11:37.376Z,0
2016-10-23T04:12:37.393Z,0
2016-10-23T04:13:37.396Z,0
2016-10-23T04:14:37.404Z,0
2016-10-23T04:15:37.445Z,0
2016-10-23T04:16:37.437Z,0
2016-10-23T04:17:37.478Z,0
2016-10-23T04:18:37.467Z,0
2016-10-23T04:19:37.485Z,0
2016-10-23T04:20:37.507Z,0
2016-10-23T04:21:37.531Z,0
2016-10-23T04:22:37.528Z,0
2016-10-23T04:23:37.593Z,0
2016-10-23T04:24:37.586Z,0
2016-10-23T04:25:37.579Z,0
2016-10-23T04:26:37.604Z,0
2016-10-23T04:27:37.614Z,0
2016-10-23T04:28:37.647Z,0
2016-10-23T04:29:37.642Z,0
2016-10-23T04:30:37.651Z,0
2016-10-23T04:31:37.667Z,0
2016-10-23T04:32:37.697Z,0
2016-10-23T04:33:37.710Z,0
2016-10-23T04:34:37.707Z,0
2016-10-23T04:35:37.732Z,0
2016-10-23T04:36:37.753Z,0
2016-10-23T04:37:37.764Z,0
2016-10-23T04:38:37.816Z,0
2016-10-23T04:39:37.792Z,0
2016-10-23T04:40:37.806Z,0
2016-10-23T04:41:37.822Z,0
2016-10-23T04:42:37.830Z,0
2016-10-23T04:43:37.841Z,0
2016-10-23T04:44:37.872Z,0
2016-10-23T04:45:37.887Z,0
2016-10-23T04:46:37.912Z,0
2016-10-23T04:47:37.912Z,0
2016-10-23T04:48:37.948Z,0
2016-10-23T04:49:37.938Z,0
2016-10-23T04:50:37.956Z,0
2016-10-23T04:51:37.986Z,0
2016-10-23T04:52:37.982Z,0
2016-10-23T04:53:38.004Z,0
2016-10-23T04:54:38.022Z,0
2016-10-23T04:55:38.021Z,0
2016-10-23T04:56:38.046Z,0
2016-10-23T04:57:38.048Z,0
2016-10-23T04:58:38.089Z,0
2016-10-23T04:59:38.091Z,0
2016-10-23T05:00:38.112Z,0
2016-10-23T05:01:38.116Z,0
2016-10-23T05:02:38.145Z,0
2016-10-23T05:03:38.177Z,0
2016-10-23T05:04:38.159Z,0
2016-10-23T05:05:38.164Z,0
2016-10-23T05:06:38.206Z,0
2016-10-23T05:07:38.210Z,0
2016-10-23T05:08:38.219Z,0
2016-10-23T05:09:38.249Z,0
2016-10-23T05:10:38.267Z,0
2016-10-23T05:11:38.259Z,0
2016-10-23T05:12:38.267Z,0
2016-10-23T05:13:38.312Z,0
2016-10-23T05:14:38.325Z,0
2016-10-23T05:15:38.319Z,0
2016-10-23T05:16:38.661Z,0
2016-10-23T05:17:38.360Z,0
2016-10-23T05:18:38.397Z,0
2016-10-23T05:19:38.399Z,0
2016-10-23T05:20:38.400Z,0
2016-10-23T05:21:38.423Z,0
2016-10-23T05:22:38.466Z,0
2016-10-23T05:23:38.432Z,0
2016-10-23T05:24:38.476Z,0
2016-10-23T05:25:38.472Z,0
2016-10-23T05:26:38.498Z,0
2016-10-23T05:27:38.497Z,0
2016-10-23T05:28:38.531Z,0
2016-10-23T05:29:38.542Z,0
2016-10-23T05:30:38.557Z,0
2016-10-23T05:31:38.563Z,4
2016-10-23T05:32:38.587Z,4
2016-10-23T05:33:38.625Z,0
2016-10-23T05:34:38.597Z,4
2016-10-23T05:35:38.615Z,4
2016-10-23T05:36:38.653Z,4
2016-10-23T05:37:38.641Z,4
2016-10-23T05:38:38.662Z,8
2016-10-23T05:39:38.670Z,8
2016-10-23T05:40:38.689Z,8
2016-10-23T05:41:38.715Z,12
2016-10-23T05:42:38.727Z,12
2016-10-23T05:43:38.726Z,16
2016-10-23T05:44:38.759Z,16
2016-10-23T05:45:38.771Z,20
2016-10-23T05:46:38.785Z,24
2016-10-23T05:47:38.784Z,28
2016-10-23T05:48:38.809Z,32
2016-10-23T05:49:38.811Z,36
2016-10-23T05:50:38.839Z,44
2016-10-23T05:51:38.888Z,52
2016-10-23T05:52:39.209Z,60
2016-10-23T05:53:38.878Z,68
2016-10-23T05:54:38.899Z,80
2016-10-23T05:55:38.902Z,92
2016-10-23T05:56:38.935Z,104
2016-10-23T05:57:38.944Z,120
2016-10-23T05:58:38.954Z,136
2016-10-23T05:59:38.971Z,152
2016-10-23T06:00:38.992Z,168
2016-10-23T06:01:39.006Z,192
2016-10-23T06:02:39.015Z,208
2016-10-23T06:03:39.044Z,232
2016-10-23T06:04:39.040Z,256
2016-10-23T06:05:39.063Z,284
2016-10-23T06:06:39.075Z,312
2016-10-23T06:07:39.087Z,336
2016-10-23T06:08:39.134Z,368
2016-10-23T06:09:39.125Z,400
2016-10-23T06:10:39.140Z,428
2016-10-23T06:11:39.163Z,460
2016-10-23T06:12:39.499Z,496
2016-10-23T06:13:39.176Z,532
2016-10-23T06:14:39.505Z,564
2016-10-23T06:15:39.215Z,600
2016-10-23T06:16:39.230Z,632
2016-10-23T06:17:39.236Z,668
2016-10-23T06:18:39.245Z,708
2016-10-23T06:19:39.267Z,748
2016-10-23T06:20:39.285Z,788
2016-10-23T06:21:39.279Z,828
2016-10-23T06:22:39.313Z,868
2016-10-23T06:23:39.316Z,912
2016-10-23T06:24:39.342Z,952
2016-10-23T06:25:39.368Z,996
2016-10-23T06:26:39.366Z,1036
2016-10-23T06:27:39.387Z,1076
2016-10-23T06:28:39.397Z,1120
2016-10-23T06:29:39.409Z,1164
2016-10-23T06:30:39.465Z,1212
2016-10-23T06:31:39.455Z,1260
2016-10-23T06:32:39.454Z,1312
2016-10-23T06:33:39.464Z,1356
2016-10-23T06:34:39.492Z,1408
2016-10-23T06:35:39.504Z,1456
2016-10-23T06:36:39.532Z,1500
2016-10-23T06:37:39.530Z,1540
2016-10-23T06:38:39.537Z,1584
2016-10-23T06:39:39.550Z,1628
2016-10-23T06:40:39.569Z,1680
2016-10-23T06:41:39.585Z,1728
2016-10-23T06:42:39.605Z,1772
2016-10-23T06:43:39.603Z,1820
2016-10-23T06:44:39.645Z,1864
2016-10-23T06:45:39.661Z,1912
2016-10-23T06:46:39.678Z,1956
2016-10-23T06:47:39.674Z,2000
2016-10-23T06:48:39.692Z,2044
2016-10-23T06:49:39.714Z,2084
2016-10-23T06:50:39.722Z,2132
2016-10-23T06:51:39.736Z,2176
2016-10-23T06:52:39.790Z,2220
2016-10-23T06:53:39.758Z,2256
2016-10-23T06:54:39.815Z,2296
2016-10-23T06:55:39.782Z,2328
2016-10-23T06:56:39.802Z,2364
2016-10-23T06:57:39.820Z,2400
2016-10-23T06:58:39.830Z,2444
2016-10-23T06:59:39.855Z,2492
2016-10-23T07:00:39.869Z,2536
2016-10-23T07:01:39.861Z,2584
2016-10-23T07:02:39.899Z,2640
2016-10-23T07:03:39.902Z,2696
2016-10-23T07:04:39.907Z,2748
2016-10-23T07:05:39.937Z,2792
2016-10-23T07:06:39.947Z,2832
2016-10-23T07:07:39.973Z,2868
2016-10-23T07:08:39.978Z,2900
2016-10-23T07:09:40.007Z,2948
2016-10-23T07:10:40.015Z,2996
2016-10-23T07:11:40.042Z,3056
2016-10-23T07:12:40.028Z,3120
2016-10-23T07:13:40.050Z,3188
2016-10-23T07:14:40.062Z,3256
2016-10-23T07:15:40.078Z,3328
2016-10-23T07:16:40.116Z,3420
2016-10-23T07:17:40.103Z,3468
2016-10-23T07:18:40.134Z,3520
2016-10-23T07:19:40.136Z,3572
2016-10-23T07:20:40.189Z,3612
2016-10-23T07:21:40.170Z,3656
2016-10-23T07:22:40.179Z,3692
2016-10-23T07:23:40.202Z,3740
2016-10-23T07:24:40.226Z,3792
2016-10-23T07:25:40.226Z,3832
2016-10-23T07:26:40.258Z,3884
2016-10-23T07:27:40.252Z,3920
2016-10-23T07:28:40.281Z,3960
2016-10-23T07:29:40.297Z,4004
2016-10-23T07:30:40.302Z,4044
2016-10-23T07:31:40.301Z,4080
2016-10-23T07:32:40.343Z,4108
2016-10-23T07:33:40.350Z,4136
2016-10-23T07:34:40.383Z,4168
2016-10-23T07:35:40.362Z,4208
2016-10-23T07:36:40.408Z,4240
2016-10-23T07:37:40.409Z,4268
2016-10-23T07:38:40.430Z,4312
2016-10-23T07:39:40.446Z,4352
2016-10-23T07:40:40.455Z,4380
2016-10-23T07:41:40.470Z,4396
2016-10-23T07:42:40.482Z,4436
2016-10-23T07:43:40.528Z,4452
2016-10-23T07:44:40.518Z,4488
2016-10-23T07:45:40.517Z,4496
2016-10-23T07:46:40.554Z,4512
2016-10-23T07:47:40.602Z,4556
2016-10-23T07:48:40.584Z,4584
2016-10-23T07:49:40.572Z,4588
2016-10-23T07:50:40.646Z,4608
2016-10-23T07:51:40.610Z,4704
2016-10-23T07:52:40.656Z,4724
2016-10-23T07:53:40.640Z,4756
2016-10-23T07:54:40.670Z,4800
2016-10-23T07:55:40.658Z,4828
2016-10-23T07:56:40.694Z,4892
2016-10-23T07:57:40.678Z,4928
2016-10-23T07:58:40.737Z,4912
2016-10-23T07:59:40.730Z,4944
2016-10-23T08:00:40.750Z,4996
2016-10-23T08:01:40.803Z,5040
2016-10-23T08:02:40.784Z,5072
2016-10-23T08:03:40.799Z,5088
2016-10-23T08:04:40.814Z,5120
2016-10-23T08:05:40.862Z,5152
2016-10-23T08:06:40.855Z,5176
2016-10-23T08:07:40.861Z,5192
2016-10-23T08:08:40.872Z,5200
2016-10-23T08:09:40.895Z,5204
2016-10-23T08:10:40.911Z,5244
2016-10-23T08:11:40.955Z,5272
2016-10-23T08:12:40.943Z,5260
2016-10-23T08:13:40.953Z,5276
2016-10-23T08:14:40.984Z,5308
2016-10-23T08:15:40.988Z,5292
2016-10-23T08:16:41.003Z,5308
2016-10-23T08:17:41.009Z,5376
2016-10-23T08:18:41.035Z,5428
2016-10-23T08:19:41.028Z,5412
2016-10-23T08:20:41.071Z,5436
2016-10-23T08:21:41.121Z,5508
2016-10-23T08:22:41.102Z,5540
2016-10-23T08:23:41.110Z,5564
2016-10-23T08:24:41.130Z,5560
2016-10-23T08:25:41.151Z,5572
2016-10-23T08:26:41.479Z,5572
2016-10-23T08:27:41.171Z,5580
2016-10-23T08:28:41.239Z,5604
2016-10-23T08:29:41.194Z,5652
2016-10-23T08:30:41.240Z,5652
2016-10-23T08:31:41.238Z,5608
2016-10-23T08:32:41.263Z,5636
2016-10-23T08:33:41.276Z,5672
2016-10-23T08:34:41.283Z,5696
2016-10-23T08:35:41.299Z,5688
2016-10-23T08:36:41.330Z,5736
2016-10-23T08:37:41.328Z,5712
2016-10-23T08:38:41.353Z,5736
2016-10-23T08:39:41.365Z,5732
2016-10-23T08:40:41.387Z,5748
2016-10-23T08:41:41.383Z,5768
2016-10-23T08:42:41.424Z,5796
2016-10-23T08:43:41.425Z,5856
2016-10-23T08:44:41.767Z,5880
2016-10-23T08:45:41.459Z,5872
2016-10-23T08:46:41.468Z,5500
2016-10-23T08:47:41.500Z,5776
2016-10-23T08:48:41.509Z,5844
2016-10-23T08:49:41.522Z,5392
2016-10-23T08:50:41.546Z,5604
2016-10-23T08:51:41.549Z,5980
2016-10-23T08:52:41.550Z,5944
2016-10-23T08:53:41.596Z,5988
2016-10-23T08:54:41.608Z,6008
2016-10-23T08:55:41.613Z,5968
2016-10-23T08:56:41.641Z,6292
2016-10-23T08:57:41.697Z,5132
2016-10-23T08:58:41.646Z,5200
2016-10-23T08:59:41.680Z,5476
2016-10-23T09:00:41.695Z,5496
2016-10-23T09:01:41.712Z,5748
2016-10-23T09:02:41.736Z,6208
2016-10-23T09:03:41.748Z,7264
2016-10-23T09:04:41.795Z,7268
2016-10-23T09:05:41.766Z,7128
2016-10-23T09:06:41.846Z,6552
2016-10-23T09:07:41.818Z,6812
2016-10-23T09:08:41.833Z,7128
2016-10-23T09:09:41.825Z,7048
2016-10-23T09:10:41.863Z,7088
2016-10-23T09:11:41.881Z,7184
2016-10-23T09:12:41.897Z,7112
2016-10-23T09:13:41.907Z,6796
2016-10-23T09:14:41.932Z,6592
2016-10-23T09:15:41.951Z,6420
2016-10-23T09:16:41.974Z,6672
2016-10-23T09:17:41.972Z,6676
2016-10-23T09:18:42.009Z,6672
2016-10-23T09:19:42.006Z,6828
2016-10-23T09:20:42.020Z,6964
2016-10-23T09:21:42.039Z,7188
2016-10-23T09:22:42.065Z,6976
2016-10-23T09:23:42.107Z,6848
2016-10-23T09:24:42.104Z,7060
2016-10-23T09:25:42.100Z,7392
2016-10-23T09:26:42.457Z,7804
2016-10-23T09:27:42.153Z,7892
2016-10-23T09:28:42.147Z,7656
2016-10-23T09:29:42.190Z,6536
2016-10-23T09:30:42.195Z,6064
2016-10-23T09:31:42.197Z,6032
2016-10-23T09:32:42.232Z,6200
2016-10-23T09:33:42.286Z,6808
2016-10-23T09:34:42.580Z,7168
2016-10-23T09:35:42.276Z,7872
2016-10-23T09:36:42.277Z,7644
2016-10-23T09:37:42.313Z,7864
2016-10-23T09:38:42.345Z,7820
2016-10-23T09:39:42.340Z,7592
2016-10-23T09:40:42.361Z,7532
2016-10-23T09:41:42.388Z,7592
2016-10-23T09:42:42.395Z,7800
2016-10-23T09:43:42.422Z,7732
2016-10-23T09:44:42.427Z,7708
2016-10-23T09:45:42.430Z,7424
2016-10-23T09:46:42.477Z,7348
2016-10-23T09:47:42.484Z,7228
2016-10-23T09:48:42.496Z,7184
2016-10-23T09:49:42.503Z,7120
2016-10-23T09:50:42.523Z,7212
2016-10-23T09:51:42.536Z,6980
2016-10-23T09:52:42.556Z,6820
2016-10-23T09:53:42.564Z,6852
2016-10-23T09:54:42.594Z,6888
2016-10-23T09:55:42.619Z,6860
2016-10-23T09:56:42.641Z,6892
2016-10-23T09:57:42.635Z,6900
2016-10-23T09:58:42.663Z,6872
2016-10-23T09:59:42.664Z,6916
2016-10-23T10:00:42.705Z,7096
2016-10-23T10:01:42.723Z,7276
2016-10-23T10:02:42.724Z,7304
2016-10-23T10:03:42.734Z,7240
2016-10-23T10:04:42.759Z,7104
2016-10-23T10:05:42.773Z,6904
2016-10-23T10:06:42.804Z,6704
2016-10-23T10:07:42.808Z,6780
2016-10-23T10:08:42.826Z,6836
2016-10-23T10:09:42.828Z,6812
2016-10-23T10:10:42.874Z,6772
2016-10-23T10:11:42.872Z,6756
2016-10-23T10:12:42.903Z,6736
2016-10-23T10:13:42.946Z,6732
2016-10-23T10:14:42.934Z,6852
2016-10-23T10:15:42.961Z,6860
2016-10-23T10:16:42.973Z,6952
2016-10-23T10:17:42.997Z,6972
2016-10-23T10:18:42.998Z,7024
2016-10-23T10:19:43.015Z,6956
2016-10-23T10:20:43.075Z,6832
2016-10-23T10:21:43.035Z,6840
2016-10-23T10:22:43.086Z,6624
2016-10-23T10:23:43.092Z,6028
2016-10-23T10:24:43.110Z,5956
2016-10-23T10:25:43.114Z,5244
2016-10-23T10:26:43.151Z,6020
2016-10-23T10:27:43.156Z,5208
2016-10-23T10:28:43.179Z,6440
2016-10-23T10:29:43.227Z,5976
2016-10-23T10:30:43.215Z,6324
2016-10-23T10:31:43.213Z,4980
2016-10-23T10:32:43.228Z,4912
2016-10-23T10:33:43.255Z,5652
2016-10-23T10:34:43.257Z,5520
2016-10-23T10:35:43.273Z,5760
2016-10-23T10:36:43.314Z,6724
2016-10-23T10:37:43.359Z,6516
2016-10-23T10:38:43.330Z,6664
2016-10-23T10:39:43.348Z,5904
2016-10-23T10:40:43.368Z,6644
2016-10-23T10:41:43.385Z,6360
2016-10-23T10:42:43.407Z,6652
2016-10-23T10:43:43.400Z,6712
2016-10-23T10:44:43.418Z,6720
2016-10-23T10:45:43.460Z,6644
2016-10-23T10:46:43.459Z,6532
2016-10-23T10:47:43.487Z,6540
2016-10-23T10:48:43.493Z,6524
2016-10-23T10:49:43.501Z,6528
2016-10-23T10:50:43.532Z,6484
2016-10-23T10:51:43.544Z,6520
2016-10-23T10:52:43.581Z,6500
2016-10-23T10:53:43.586Z,6464
2016-10-23T10:54:43.598Z,6356
2016-10-23T10:55:43.628Z,6424
2016-10-23T10:56:43.640Z,6356
2016-10-23T10:57:43.645Z,6404
2016-10-23T10:58:43.667Z,6392
2016-10-23T10:59:43.670Z,6412
2016-10-23T11:00:43.703Z,6352
2016-10-23T11:01:43.706Z,6324
2016-10-23T11:02:43.744Z,6276
2016-10-23T11:03:43.767Z,6372
2016-10-23T11:04:43.768Z,6416
2016-10-23T11:05:43.784Z,6448
2016-10-23T11:06:43.807Z,6488
2016-10-23T11:07:43.815Z,6516
2016-10-23T11:08:43.841Z,6500
2016-10-23T11:09:43.860Z,6528
2016-10-23T11:10:43.868Z,6528
2016-10-23T11:11:43.867Z,6532
2016-10-23T11:12:43.916Z,6596
2016-10-23T11:13:43.896Z,6592
2016-10-23T11:14:43.934Z,6596
2016-10-23T11:15:43.948Z,6556
2016-10-23T11:16:44.013Z,6568
2016-10-23T11:17:43.987Z,6548
2016-10-23T11:18:44.003Z,6556
2016-10-23T11:19:44.017Z,6560
2016-10-23T11:20:44.034Z,6548
2016-10-23T11:21:44.052Z,6524
2016-10-23T11:22:44.058Z,6480
2016-10-23T11:23:44.097Z,6524
2016-10-23T11:24:44.113Z,6536
2016-10-23T11:25:44.119Z,6532
2016-10-23T11:26:44.177Z,6568
2016-10-23T11:27:44.183Z,6596
2016-10-23T11:28:44.187Z,6596
2016-10-23T11:29:44.197Z,6612
2016-10-23T11:30:44.201Z,6624
2016-10-23T11:31:44.242Z,6616
2016-10-23T11:32:44.244Z,6580
2016-10-23T11:33:44.243Z,6560
2016-10-23T11:34:44.269Z,6600
2016-10-23T11:35:44.277Z,6592
2016-10-23T11:36:44.300Z,6608
2016-10-23T11:37:44.342Z,6580
2016-10-23T11:38:44.330Z,6528
2016-10-23T11:39:44.344Z,6556
2016-10-23T11:40:44.415Z,6548
2016-10-23T11:41:44.363Z,6524
2016-10-23T11:42:44.402Z,6548
2016-10-23T11:43:44.411Z,6528
2016-10-23T11:44:44.442Z,6540
2016-10-23T11:45:44.438Z,6572
2016-10-23T11:46:44.473Z,6516
2016-10-23T11:47:44.485Z,6552
2016-10-23T11:48:44.485Z,6532
2016-10-23T11:49:44.524Z,6488
2016-10-23T11:50:44.548Z,6472
2016-10-23T11:51:44.562Z,6456
2016-10-23T11:52:44.603Z,6476
2016-10-23T11:53:44.586Z,6496
2016-10-23T11:54:44.595Z,6488
2016-10-23T11:55:44.598Z,6484
2016-10-23T11:56:44.671Z,6484
2016-10-23T11:57:44.673Z,6488
2016-10-23T11:58:44.653Z,6488
2016-10-23T11:59:44.691Z,6468
2016-10-23T12:00:44.740Z,6444
2016-10-23T12:01:44.733Z,6476
2016-10-23T12:02:44.744Z,6520
2016-10-23T12:03:44.750Z,6508
2016-10-23T12:04:44.777Z,6556
2016-10-23T12:05:44.785Z,6556
2016-10-23T12:06:44.800Z,6516
2016-10-23T12:07:44.817Z,6460
2016-10-23T12:08:44.848Z,6448
2016-10-23T12:09:44.838Z,6428
2016-10-23T12:10:44.878Z,6384
2016-10-23T12:11:44.896Z,6428
2016-10-23T12:12:44.920Z,6428
2016-10-23T12:13:44.938Z,6416
2016-10-23T12:14:44.957Z,6416
2016-10-23T12:15:44.945Z,6400
2016-10-23T12:16:45.003Z,6404
2016-10-23T12:17:44.997Z,6368
2016-10-23T12:18:45.013Z,6312
2016-10-23T12:19:45.019Z,6340
2016-10-23T12:20:45.046Z,6312
2016-10-23T12:21:45.051Z,6292
2016-10-23T12:22:45.102Z,6316
2016-10-23T12:23:45.097Z,6344
2016-10-23T12:24:45.096Z,6368
2016-10-23T12:25:45.144Z,6312
2016-10-23T12:26:45.150Z,6332
2016-10-23T12:27:45.163Z,6332
2016-10-23T12:28:45.175Z,6348
2016-10-23T12:29:45.192Z,6280
2016-10-23T12:30:45.217Z,6148
2016-10-23T12:31:45.245Z,6132
2016-10-23T12:32:45.577Z,6104
2016-10-23T12:33:45.271Z,6052
2016-10-23T12:34:45.285Z,6036
2016-10-23T12:35:45.310Z,6096
2016-10-23T12:36:45.330Z,6264
2016-10-23T12:37:45.350Z,6256
2016-10-23T12:38:45.360Z,6244
2016-10-23T12:39:45.362Z,6212
2016-10-23T12:40:45.724Z,6096
2016-10-23T12:41:45.407Z,6048
2016-10-23T12:42:45.444Z,6072
2016-10-23T12:43:45.437Z,5852
2016-10-23T12:44:45.489Z,5884
2016-10-23T12:45:45.489Z,5712
2016-10-23T12:46:45.499Z,5712
2016-10-23T12:47:45.504Z,5748
2016-10-23T12:48:45.532Z,5716
2016-10-23T12:49:45.558Z,5792
2016-10-23T12:50:45.563Z,5836
2016-10-23T12:51:45.623Z,5804
2016-10-23T12:52:45.619Z,5844
2016-10-23T12:53:45.648Z,5768
2016-10-23T12:54:45.640Z,5704
2016-10-23T12:55:45.623Z,5656
2016-10-23T12:56:45.669Z,5648
2016-10-23T12:57:45.685Z,5724
2016-10-23T12:58:45.710Z,5944
2016-10-23T12:59:45.726Z,5912
2016-10-23T13:00:45.723Z,5752
2016-10-23T13:01:45.756Z,5672
2016-10-23T13:02:45.778Z,5636
2016-10-23T13:03:45.791Z,5664
2016-10-23T13:04:45.795Z,5688
2016-10-23T13:05:45.828Z,5672
2016-10-23T13:06:45.869Z,5556
2016-10-23T13:07:45.874Z,5548
2016-10-23T13:08:46.222Z,5564
2016-10-23T13:09:46.238Z,5584
2016-10-23T13:10:45.915Z,5532
2016-10-23T13:11:45.916Z,5476
2016-10-23T13:12:45.951Z,5372
2016-10-23T13:13:45.954Z,5316
2016-10-23T13:14:45.998Z,5248
2016-10-23T13:15:45.988Z,5320
2016-10-23T13:16:46.018Z,5236
2016-10-23T13:17:46.018Z,5184
2016-10-23T13:18:46.069Z,5176
2016-10-23T13:19:46.058Z,5116
2016-10-23T13:20:46.097Z,5120
2016-10-23T13:21:46.092Z,5096
2016-10-23T13:22:46.144Z,5052
2016-10-23T13:23:46.144Z,5048
2016-10-23T13:24:46.610Z,5064
2016-10-23T13:25:46.170Z,5032
2016-10-23T13:26:46.204Z,5012
2016-10-23T13:27:50.627Z,4996
2016-10-23T13:28:47.350Z,4940
2016-10-23T13:29:47.117Z,4956
2016-10-23T13:30:46.275Z,4924
2016-10-23T13:31:46.306Z,4888
2016-10-23T13:32:46.297Z,4864
2016-10-23T13:33:46.325Z,4836
2016-10-23T13:34:46.334Z,4812
2016-10-23T13:35:46.356Z,4812
2016-10-23T13:36:46.359Z,4756
2016-10-23T13:37:46.390Z,4752
2016-10-23T13:38:46.413Z,4700
2016-10-23T13:39:46.416Z,4716
2016-10-23T13:40:46.444Z,4660
2016-10-23T13:41:46.454Z,4672
2016-10-23T13:42:46.459Z,4612
2016-10-23T13:43:46.476Z,4604
2016-10-23T13:44:46.494Z,4580
2016-10-23T13:45:46.521Z,4592
2016-10-23T13:46:46.543Z,4568
2016-10-23T13:47:46.562Z,4480
2016-10-23T13:48:46.574Z,4436
2016-10-23T13:49:46.607Z,4492
2016-10-23T13:50:46.590Z,4460
2016-10-23T13:51:46.627Z,4404
2016-10-23T13:52:46.646Z,4356
2016-10-23T13:53:46.685Z,4316
2016-10-23T13:54:46.682Z,4252
2016-10-23T13:55:46.706Z,4200